Flight Track Log - Related Links

Times and Time Zones

All times are in EDT time to prevent confusion due to time zone crossing. See the N515KK flight status page for this flight to view local times or setup timezone preferences in your user account.

Time Position Orientation Groundspeed Altitude Reporting Facility
EDT Latitude Longitude Course Direction KTS MPH feet Rate Location/Type
Wed 06:57:05 PM 33.2275 -87.5925 129° Southeast 157 181 1,400  Level Atlanta Center
Wed 06:58:05 PM 33.1975 -87.5489 129° Southeast 168 193 3,700 2,080 Climbing Atlanta Center
Wed 06:58:20 PM 33.1936 -87.5389 115° Southeast 206 237 4,000 1,280 Climbing Atlanta Center
Wed 06:59:20 PM 33.1514 -87.4825 132° Southeast 223 257 5,300 1,900 Climbing Atlanta Center
Wed 07:00:20 PM 33.0989 -87.4136 132° Southeast 250 288 7,800 2,350 Climbing Atlanta Center
Wed 07:01:20 PM 33.0444 -87.3444 133° Southeast 275 316 10,000 2,250 Climbing Atlanta Center
Wed 07:02:20 PM 32.9881 -87.2706 132° Southeast 287 330 12,300 2,250 Climbing Atlanta Center
Wed 07:03:20 PM 32.9314 -87.1992 133° Southeast 297 342 14,500 1,300 Climbing Atlanta Center
Wed 07:04:20 PM 32.8686 -87.1228 134° Southeast 310 357 14,900 -150 Climbing Atlanta Center
Wed 07:05:20 PM 32.8081 -87.0417 132° Southeast 324 373 14,200 -1,150 Descending Atlanta Center
Wed 07:06:20 PM 32.7408 -86.9653 136° Southeast 324 373 12,600 -1,400 Descending Atlanta Center
Wed 07:07:20 PM 32.6650 -86.9108 149° Southeast 324 373 11,400 -1,300 Descending Atlanta Center
Wed 07:08:20 PM 32.5928 -86.8717 155° Southeast 301 346 10,000 -1,100 Descending Atlanta Center
Wed 07:09:20 PM 32.5250 -86.8275 151° Southeast 296 341 9,200 -950 Descending Atlanta Center
Wed 07:10:20 PM 32.4633 -86.7789 146° Southeast 277 319 8,100 -1,800 Descending Atlanta Center
Wed 07:11:20 PM 32.4083 -86.7256 141° Southeast 264 304 5,600 -2,100 Descending Atlanta Center
Wed 07:12:20 PM 32.3636 -86.6628 130° Southeast 256 295 3,900 -1,700 Descending Atlanta Center
Wed 07:14:00 PM 32.3251 -86.4978 121° Southeast  Level Estimated
Wed 07:21:00 PM 32.3006 -86.3940 121° Southeast  Level Estimated
Wed 07:22:00 PM 32.3006 -86.3940 121° Southeast  Level Estimated
Wed 07:23:00 PM 32.3006 -86.3940 121° Southeast  Level Estimated
Wed 07:24:00 PM 32.3006 -86.3940 121° Southeast  Level Estimated

Login

Don't have an account? Register now (free) for customized features, flight alerts, and more!